Middletown, Vermont
Current Conditions -  °F | °C
As of 1:15 PM on Friday 28 Nov 2014 (Local Time) from KRUT Reporting Station
Overcast Overcast  
Wind Chill: 16°   Ceiling: 4200
Heat Index: 27°   Visibility: 10mi
Dew Point: 14°   Wind: 12mph
Humidity: 59%   Direction: 270°W
Pressure: 30.06"   Gusts: 18mph
Location:  43.2811°N, 72.6352°W
Report Text: KRUT 281815Z 27010G16KT 10SM BKN042 OVC049 M03/M10 A3006 RMK AO1
Loading
Personal Weather Stations






























Interactive Weather Map New forecast layout! Learn more

10-Day Weather Forecast

Advertisements
Track Severe Weather on mobile